Time;durP1;ratioP1;P1;durP2;ratioP2;P2;SDS_P1;SDS_P2;PMS_P1;PMS_P2;Temp;Humidity;BMP_temperature;BMP_pressure;BME280_temperature;BME280_humidity;BME280_pressure;Samples;Min_cycle;Max_cycle;Signal;HPM_P1;HPM_P2
2020/12/31 14:26:51;;;;;;;9.27;3.83;;;;;;;19.56;46.92;99593.97;3569516;22;20231;-65
2020/12/31 14:29:17;;;;;;;6.33;4.07;;;;;;;19.43;47.02;99593.88;5088789;28;20222;-65
2020/12/31 14:31:44;;;;;;;8.07;3.67;;;;;;;19.32;47.33;99601.53;5087562;28;20197;-64
2020/12/31 14:34:10;;;;;;;7.70;3.87;;;;;;;19.27;47.04;99603.19;5088955;28;20191;-65
2020/12/31 14:36:38;;;;;;;6.63;4.03;;;;;;;19.22;47.19;99601.06;5085285;28;20221;-65
2020/12/31 14:39:05;;;;;;;6.70;4.00;;;;;;;19.23;46.95;99612.75;5082848;28;20331;-65
2020/12/31 14:41:35;;;;;;;5.70;3.83;;;;;;;19.20;46.62;99603.16;5099172;28;20193;-63
2020/12/31 14:47:15;;;;;;;6.03;3.90;;;;;;;19.11;46.42;99601.63;5114867;23;20245;-66
2020/12/31 14:49:41;;;;;;;6.40;4.03;;;;;;;19.07;46.54;99610.34;4994611;28;20271;-66
2020/12/31 14:52:07;;;;;;;5.13;3.47;;;;;;;19.05;46.44;99610.56;5020651;28;20196;-66
2020/12/31 14:54:34;;;;;;;4.60;3.70;;;;;;;18.99;46.13;99612.19;5018652;28;20197;-66
2020/12/31 14:57:00;;;;;;;5.93;3.50;;;;;;;18.92;46.75;99622.13;5015138;28;20249;-65
2020/12/31 14:59:26;;;;;;;4.03;3.20;;;;;;;18.88;46.61;99622.72;5014962;28;20217;-64
2020/12/31 15:01:53;;;;;;;6.00;3.60;;;;;;;18.81;46.63;99621.84;5013480;28;20197;-65
2020/12/31 15:04:19;;;;;;;4.50;3.17;;;;;;;18.75;46.64;99636.19;5012645;28;20609;-63
2020/12/31 15:06:46;;;;;;;4.63;3.23;;;;;;;18.64;46.79;99624.81;4995357;28;20209;-63
2020/12/31 15:09:12;;;;;;;5.07;3.27;;;;;;;18.31;46.46;99581.16;5012435;28;20182;-68
2020/12/31 15:11:38;;;;;;;4.07;3.03;;;;;;;18.59;46.74;99629.97;5013116;28;20763;-68
2020/12/31 15:14:05;;;;;;;4.10;3.20;;;;;;;18.52;46.52;99634.50;5012821;28;20197;-67
2020/12/31 15:16:31;;;;;;;4.27;3.07;;;;;;;18.53;46.46;99633.47;5013080;28;20295;-66
2020/12/31 15:18:57;;;;;;;4.77;3.10;;;;;;;18.47;46.82;99631.53;4995811;28;20182;-65
2020/12/31 15:21:23;;;;;;;4.93;3.17;;;;;;;18.38;46.60;99632.69;5012858;28;20209;-64
2020/12/31 15:23:49;;;;;;;6.93;3.30;;;;;;;18.35;46.67;99627.66;4995437;28;20217;-68
2020/12/31 15:26:15;;;;;;;4.33;3.07;;;;;;;18.35;46.90;99633.06;5009687;28;20327;-64
2020/12/31 15:28:41;;;;;;;3.60;3.20;;;;;;;18.33;47.07;99632.44;5012536;28;20217;-64
2020/12/31 15:31:09;;;;;;;5.30;3.13;;;;;;;18.32;46.84;99633.47;5012694;28;20182;-63
2020/12/31 15:33:35;;;;;;;4.80;3.10;;;;;;;18.32;47.24;99637.00;5012649;28;20181;-64
2020/12/31 15:36:02;;;;;;;4.07;3.10;;;;;;;18.33;46.87;99646.81;4962868;28;20206;-64
2020/12/31 15:38:28;;;;;;;3.83;3.00;;;;;;;18.33;46.79;99635.97;5012066;28;20699;-68
2020/12/31 15:40:54;;;;;;;5.63;3.13;;;;;;;18.34;46.76;99642.22;4994829;28;20556;-67
2020/12/31 15:43:20;;;;;;;3.40;2.50;;;;;;;18.33;47.02;99645.97;5012119;28;20194;-67
2020/12/31 15:45:46;;;;;;;5.60;2.90;;;;;;;18.34;47.25;99647.66;4994653;28;20208;-63
2020/12/31 15:48:12;;;;;;;2.90;2.60;;;;;;;18.35;47.11;99655.56;4986813;28;20193;-64
2020/12/31 15:50:38;;;;;;;3.13;2.70;;;;;;;18.34;47.08;99653.91;4978798;28;20212;-64
2020/12/31 15:53:04;;;;;;;5.63;2.70;;;;;;;18.34;46.87;99655.78;5012183;28;20197;-64
2020/12/31 15:55:30;;;;;;;3.17;2.83;;;;;;;18.35;46.77;99657.44;4992166;28;20205;-63
2020/12/31 15:57:56;;;;;;;3.10;2.70;;;;;;;18.33;47.21;99660.34;5011923;28;20586;-63
2020/12/31 16:00:22;;;;;;;3.40;2.83;;;;;;;18.33;46.80;99667.66;4994396;28;20236;-63
2020/12/31 16:02:48;;;;;;;3.47;2.80;;;;;;;18.30;46.81;99663.44;5012112;28;20295;-63
2020/12/31 16:05:15;;;;;;;3.47;2.90;;;;;;;18.27;47.24;99666.56;5011479;28;20577;-63
2020/12/31 16:07:42;;;;;;;2.97;2.47;;;;;;;18.27;47.21;99663.00;4998654;28;20270;-67
2020/12/31 16:10:10;;;;;;;3.07;2.70;;;;;;;18.27;47.13;99668.41;4998731;28;20185;-66
2020/12/31 16:12:36;;;;;;;3.03;2.60;;;;;;;18.21;46.67;99661.03;4998673;28;20270;-66
2020/12/31 16:15:04;;;;;;;3.97;2.50;;;;;;;18.18;46.86;99664.13;4982403;28;20186;-66
2020/12/31 16:17:31;;;;;;;2.77;2.57;;;;;;;18.13;47.20;99672.00;4997231;28;20531;-66
2020/12/31 16:19:57;;;;;;;3.23;2.60;;;;;;;17.82;47.24;99627.06;5028498;28;20331;-63
2020/12/31 16:22:24;;;;;;;5.27;2.90;;;;;;;18.01;47.08;99669.78;5018456;28;20185;-64
2020/12/31 16:24:51;;;;;;;2.93;2.57;;;;;;;17.95;47.33;99670.53;5029001;28;20276;-63
2020/12/31 16:27:18;;;;;;;3.00;2.70;;;;;;;17.90;46.94;99677.53;4993233;28;20217;-67
2020/12/31 16:29:44;;;;;;;2.60;2.23;;;;;;;17.82;47.66;99673.09;5014574;28;20200;-67
2020/12/31 16:32:11;;;;;;;2.73;2.40;;;;;;;17.76;47.60;99679.25;5009892;28;20185;-65
2020/12/31 16:34:37;;;;;;;3.43;2.60;;;;;;;17.78;47.64;99679.91;5018320;28;20192;-64
2020/12/31 16:37:14;;;;;;;2.70;2.50;;;;;;;17.80;47.05;99672.44;5001861;28;20216;-63
2020/12/31 16:39:48;;;;;;;3.40;2.50;;;;;;;17.82;47.20;99677.66;4982125;28;20317;-63
2020/12/31 16:42:15;;;;;;;2.60;2.30;;;;;;;17.89;47.65;99674.00;4999018;28;20272;-65
2020/12/31 16:44:41;;;;;;;3.07;2.67;;;;;;;18.00;47.61;99680.81;4998326;28;20663;-62
2020/12/31 16:47:07;;;;;;;3.17;2.53;;;;;;;18.12;47.48;99675.72;4997129;28;20209;-65
2020/12/31 16:49:33;;;;;;;2.70;2.50;;;;;;;18.21;46.92;99675.41;4982105;28;20194;-62
2020/12/31 16:52:04;;;;;;;3.33;2.47;;;;;;;18.34;47.17;99681.00;4998068;28;20247;-65
2020/12/31 16:54:30;;;;;;;2.57;2.20;;;;;;;18.45;47.00;99678.78;4998821;28;20280;-66
2020/12/31 16:56:57;;;;;;;2.50;2.30;;;;;;;18.55;46.70;99680.19;5014928;28;20213;-66
2020/12/31 16:59:24;;;;;;;2.80;2.50;;;;;;;18.63;46.80;99676.53;4981777;28;20189;-67
2020/12/31 17:01:50;;;;;;;2.30;2.10;;;;;;;18.69;46.64;99673.91;5015288;28;20640;-65
2020/12/31 17:04:16;;;;;;;2.53;2.30;;;;;;;18.77;46.39;99682.91;4997827;28;20629;-64
2020/12/31 17:06:45;;;;;;;2.77;2.57;;;;;;;18.80;46.62;99690.66;4997721;28;20247;-64
2020/12/31 17:09:12;;;;;;;2.60;2.40;;;;;;;18.81;46.58;99686.91;4997668;28;20189;-64
2020/12/31 17:11:38;;;;;;;3.03;2.40;;;;;;;18.81;46.16;99689.63;4997607;28;20194;-64
2020/12/31 17:14:10;;;;;;;2.50;2.30;;;;;;;18.81;46.25;99690.47;4980625;28;20189;-64
2020/12/31 17:16:38;;;;;;;2.97;2.40;;;;;;;18.79;46.22;99686.28;4981499;28;20531;-66
2020/12/31 17:19:09;;;;;;;2.60;2.40;;;;;;;18.76;46.24;99686.66;4996372;28;20525;-65
2020/12/31 17:21:36;;;;;;;2.70;2.50;;;;;;;18.70;46.50;99681.00;5014764;28;20185;-68
2020/12/31 17:24:03;;;;;;;2.87;2.67;;;;;;;18.65;46.60;99686.13;5012010;28;20185;-67
2020/12/31 17:26:30;;;;;;;2.47;2.27;;;;;;;18.58;46.21;99687.91;4996903;28;20228;-63
2020/12/31 17:28:57;;;;;;;3.60;2.50;;;;;;;18.53;46.22;99684.94;5014220;28;20220;-62
2020/12/31 17:31:23;;;;;;;2.87;2.37;;;;;;;18.49;46.78;99690.97;5014121;28;20521;-67
2020/12/31 17:33:49;;;;;;;3.53;2.90;;;;;;;18.43;46.85;99697.97;5014182;28;20198;-66
2020/12/31 17:36:15;;;;;;;2.77;2.57;;;;;;;18.37;46.44;99691.44;4996448;28;20205;-64
2020/12/31 17:38:41;;;;;;;2.53;2.33;;;;;;;18.31;46.92;99684.09;5014110;28;20597;-62
2020/12/31 17:41:11;;;;;;;3.10;2.40;;;;;;;18.25;46.61;99690.28;5013820;28;20201;-62
2020/12/31 17:43:37;;;;;;;3.43;2.50;;;;;;;18.18;46.55;99692.06;5013993;28;20178;-62
2020/12/31 17:46:04;;;;;;;3.27;2.57;;;;;;;18.13;46.49;99685.53;5013962;28;20205;-62
2020/12/31 17:48:30;;;;;;;2.97;2.53;;;;;;;18.07;46.94;99700.69;5007258;28;20202;-62
2020/12/31 17:50:57;;;;;;;2.90;2.43;;;;;;;18.02;46.69;99697.72;4994775;28;20186;-65
2020/12/31 17:53:23;;;;;;;2.60;2.40;;;;;;;18.01;46.90;99699.56;4994781;28;20191;-65
2020/12/31 17:55:49;;;;;;;2.50;2.30;;;;;;;18.01;46.56;99699.56;4977259;28;20202;-65
2020/12/31 17:58:17;;;;;;;2.50;2.30;;;;;;;18.05;46.96;99703.59;4977388;28;20550;-65
2020/12/31 18:00:46;;;;;;;3.07;2.77;;;;;;;18.05;47.02;99708.16;4961412;28;20321;-63
2020/12/31 18:03:13;;;;;;;2.80;2.50;;;;;;;18.07;46.48;99706.94;4994444;28;20185;-66
2020/12/31 18:05:39;;;;;;;2.80;2.60;;;;;;;18.06;46.94;99705.25;4977369;28;20293;-66
2020/12/31 18:08:05;;;;;;;2.70;2.50;;;;;;;18.07;46.86;99703.38;4989514;28;20182;-66
2020/12/31 18:10:32;;;;;;;2.60;2.40;;;;;;;18.07;46.68;99706.94;4968451;28;20202;-64
2020/12/31 18:13:01;;;;;;;2.70;2.50;;;;;;;18.08;46.78;99710.47;4977322;28;20197;-64
2020/12/31 18:15:27;;;;;;;2.77;2.50;;;;;;;18.09;46.91;99707.59;4961640;28;20207;-66
2020/12/31 18:17:54;;;;;;;2.57;2.37;;;;;;;18.09;46.94;99709.44;4976892;28;20648;-65
2020/12/31 18:20:20;;;;;;;2.50;2.30;;;;;;;18.09;46.76;99715.72;4994044;28;20218;-66
2020/12/31 18:22:47;;;;;;;2.60;2.40;;;;;;;18.10;46.77;99722.81;4994115;28;20186;-64
2020/12/31 18:25:13;;;;;;;2.50;2.30;;;;;;;18.09;46.64;99715.72;4976819;28;20194;-64
2020/12/31 18:27:39;;;;;;;2.87;2.63;;;;;;;18.09;47.31;99721.13;4976876;28;20581;-64
2020/12/31 18:30:06;;;;;;;2.97;2.50;;;;;;;18.09;46.99;99721.13;4976507;28;20186;-63
2020/12/31 18:32:32;;;;;;;2.40;2.20;;;;;;;18.10;46.94;99727.38;4976897;28;20182;-64
2020/12/31 18:34:59;;;;;;;2.77;2.30;;;;;;;18.10;46.90;99722.81;4977043;28;20343;-63
2020/12/31 18:37:25;;;;;;;2.77;2.53;;;;;;;18.15;47.22;99727.66;4993776;28;20653;-64
2020/12/31 18:39:51;;;;;;;2.57;2.37;;;;;;;18.22;46.80;99731.28;4976699;28;20202;-64
2020/12/31 18:42:17;;;;;;;2.70;2.50;;;;;;;18.28;46.73;99730.53;4976734;28;20269;-65
2020/12/31 18:44:43;;;;;;;2.40;2.20;;;;;;;18.34;46.99;99731.63;4976426;28;20202;-65
2020/12/31 18:47:12;;;;;;;2.70;2.50;;;;;;;18.40;46.52;99733.56;4993299;28;20241;-65
2020/12/31 18:49:39;;;;;;;2.90;2.60;;;;;;;18.44;46.49;99740.28;4976107;28;20190;-65
2020/12/31 18:52:12;;;;;;;2.60;2.40;;;;;;;18.48;46.83;99736.19;4996032;28;20201;-63
2020/12/31 18:54:38;;;;;;;2.77;2.57;;;;;;;18.53;46.67;99744.56;4997195;28;20329;-68
2020/12/31 18:57:04;;;;;;;2.20;2.10;;;;;;;18.55;46.28;99737.09;4995241;28;20665;-68
2020/12/31 18:59:30;;;;;;;2.60;2.40;;;;;;;18.56;46.41;99744.19;5012976;28;20186;-68
2020/12/31 19:01:56;;;;;;;2.60;2.40;;;;;;;18.57;46.17;99745.84;4995771;28;20185;-66
2020/12/31 19:04:22;;;;;;;2.53;2.33;;;;;;;18.57;46.42;99756.69;4995929;28;20197;-67
2020/12/31 19:06:49;;;;;;;2.60;2.40;;;;;;;18.57;46.61;99754.00;4979725;28;20539;-63
2020/12/31 19:09:15;;;;;;;2.77;2.57;;;;;;;18.56;46.21;99751.47;5012821;28;20208;-66
2020/12/31 19:11:41;;;;;;;3.30;2.70;;;;;;;18.56;46.39;99755.03;5012774;28;20225;-67
2020/12/31 19:14:19;;;;;;;2.60;2.40;;;;;;;18.51;46.34;99749.34;5009302;28;20376;-65
2020/12/31 19:20:39;;;;;;;3.07;2.67;;;;;;;18.40;46.54;99761.50;5015558;28;20358;-67
2020/12/31 20:00:13;;;;;;;2.87;2.67;;;;;;;18.20;46.46;99789.38;5006828;28;20224;-64
2020/12/31 20:02:40;;;;;;;2.77;2.57;;;;;;;18.16;46.44;99788.91;4997743;28;20205;-63
2020/12/31 20:05:07;;;;;;;2.70;2.50;;;;;;;18.12;46.44;99795.72;4963140;28;20288;-63
2020/12/31 20:07:33;;;;;;;3.00;2.80;;;;;;;18.08;46.85;99805.25;4998195;28;20292;-67
2020/12/31 20:10:00;;;;;;;2.80;2.60;;;;;;;18.04;46.75;99799.38;4998026;28;20640;-63
2020/12/31 20:12:26;;;;;;;2.80;2.60;;;;;;;18.01;46.84;99798.91;4997821;28;20249;-63
2020/12/31 20:14:52;;;;;;;2.90;2.70;;;;;;;18.00;46.84;99802.66;4997424;28;20204;-63
2020/12/31 20:17:18;;;;;;;2.90;2.60;;;;;;;17.98;46.89;99805.56;4997666;28;20561;-63
2020/12/31 20:19:44;;;;;;;2.77;2.57;;;;;;;18.00;46.66;99803.50;5014926;28;20288;-67
2020/12/31 20:22:11;;;;;;;2.97;2.77;;;;;;;18.03;46.83;99808.53;5014662;28;20538;-62
2020/12/31 20:24:38;;;;;;;2.77;2.57;;;;;;;18.07;47.09;99809.84;4981098;28;20568;-63
2020/12/31 20:27:05;;;;;;;2.70;2.50;;;;;;;18.17;47.19;99809.53;4997414;28;20210;-64
2020/12/31 20:29:32;;;;;;;2.80;2.60;;;;;;;18.29;47.06;99813.47;4997486;28;20575;-66
2020/12/31 20:32:06;;;;;;;2.87;2.67;;;;;;;18.39;46.78;99815.88;4997265;28;20220;-67
2020/12/31 20:34:32;;;;;;;2.70;2.50;;;;;;;18.50;46.77;99826.25;5014367;28;20610;-64
2020/12/31 20:36:58;;;;;;;2.90;2.70;;;;;;;18.60;46.77;99821.34;4996884;28;20695;-65
2020/12/31 20:39:25;;;;;;;2.70;2.50;;;;;;;18.68;46.22;99818.56;4964637;28;20189;-62
2020/12/31 20:41:51;;;;;;;2.57;2.37;;;;;;;18.78;46.14;99820.97;4997147;28;20201;-64
2020/12/31 20:44:19;;;;;;;3.00;2.80;;;;;;;18.87;46.54;99827.13;4997165;28;20651;-64
2020/12/31 20:46:45;;;;;;;2.70;2.50;;;;;;;18.92;46.14;99821.94;5014487;28;20410;-66
2020/12/31 20:49:12;;;;;;;2.90;2.70;;;;;;;18.96;46.23;99823.28;5003902;28;20628;-66
2020/12/31 20:51:41;;;;;;;2.70;2.50;;;;;;;19.00;46.28;99821.84;5025405;28;20217;-64
2020/12/31 20:54:07;;;;;;;2.90;2.70;;;;;;;19.01;45.74;99834.38;5033923;28;20193;-62
2020/12/31 20:56:33;;;;;;;2.50;2.37;;;;;;;19.00;46.04;99828.09;5033628;28;20205;-64
2020/12/31 20:59:00;;;;;;;2.93;2.70;;;;;;;18.98;46.09;99830.19;5033752;28;20197;-63
2020/12/31 21:01:26;;;;;;;2.60;2.40;;;;;;;18.96;45.91;99834.97;4989935;28;20227;-63
2020/12/31 21:03:52;;;;;;;2.93;2.73;;;;;;;18.95;45.98;99829.72;4996986;28;20353;-66
2020/12/31 21:06:18;;;;;;;3.17;2.73;;;;;;;18.92;46.05;99835.50;4996762;28;20217;-67
2020/12/31 21:08:44;;;;;;;2.90;2.70;;;;;;;18.87;45.76;99843.38;4996972;28;20243;-62
2020/12/31 21:11:11;;;;;;;2.57;2.37;;;;;;;18.83;45.86;99833.97;4996749;28;20255;-62
2020/12/31 21:13:37;;;;;;;3.03;2.83;;;;;;;18.77;45.82;99849.13;4996507;28;20251;-62
2020/12/31 21:16:03;;;;;;;2.97;2.77;;;;;;;18.67;46.27;99843.16;4996830;28;20664;-66
2020/12/31 21:18:29;;;;;;;2.90;2.70;;;;;;;18.59;45.99;99843.22;5013992;28;20292;-63
2020/12/31 21:20:56;;;;;;;3.17;2.97;;;;;;;18.50;46.38;99849.81;4996670;28;20656;-62
2020/12/31 21:23:22;;;;;;;2.80;2.60;;;;;;;18.42;46.23;99850.72;4980845;28;20213;-62
2020/12/31 21:25:48;;;;;;;2.90;2.70;;;;;;;18.35;46.27;99858.75;5013473;28;20205;-67
2020/12/31 21:28:14;;;;;;;3.23;2.97;;;;;;;18.31;46.53;99854.75;5013761;28;20193;-63
2020/12/31 21:30:45;;;;;;;2.90;2.70;;;;;;;18.23;46.70;99856.72;4996295;28;20265;-64
2020/12/31 21:33:11;;;;;;;3.10;2.90;;;;;;;18.24;46.49;99858.41;4981071;28;20549;-63
2020/12/31 21:35:37;;;;;;;2.93;2.73;;;;;;;18.24;46.31;99856.53;4996198;28;20221;-67
2020/12/31 21:38:04;;;;;;;3.33;3.10;;;;;;;18.25;46.87;99854.69;5013269;28;20276;-67
2020/12/31 21:40:30;;;;;;;3.30;3.10;;;;;;;18.27;46.48;99872.41;5013451;28;20668;-67
2020/12/31 21:42:56;;;;;;;3.37;3.10;;;;;;;18.29;46.29;99864.09;4996069;28;20201;-67
2020/12/31 21:45:23;;;;;;;3.10;2.90;;;;;;;18.29;46.46;99859.53;5013384;28;20184;-67
2020/12/31 21:47:49;;;;;;;3.13;2.93;;;;;;;18.31;46.61;99859.34;5013264;28;20185;-67
2020/12/31 21:50:16;;;;;;;3.00;2.80;;;;;;;18.30;46.73;99868.50;4996383;28;20667;-64
2020/12/31 21:52:42;;;;;;;3.43;3.13;;;;;;;18.30;46.39;99868.50;4995906;28;20217;-64
2020/12/31 21:55:09;;;;;;;2.70;2.50;;;;;;;18.31;46.50;99862.88;4995986;28;20178;-68
2020/12/31 21:57:35;;;;;;;3.43;3.23;;;;;;;18.33;46.55;99868.94;5013065;28;20190;-67
2020/12/31 22:00:02;;;;;;;3.10;2.90;;;;;;;18.33;46.59;99863.53;4995626;28;20309;-68
2020/12/31 22:02:28;;;;;;;3.20;3.00;;;;;;;18.33;46.55;99865.41;5013087;28;20197;-68
2020/12/31 22:04:54;;;;;;;3.10;2.90;;;;;;;18.32;46.88;99867.28;5012588;28;20192;-63
2020/12/31 22:07:20;;;;;;;3.30;3.10;;;;;;;18.32;46.26;99866.44;4995609;28;20548;-63
2020/12/31 22:09:47;;;;;;;3.17;2.97;;;;;;;18.28;46.51;99875.97;4996235;28;20255;-63
2020/12/31 22:12:13;;;;;;;3.80;3.50;;;;;;;18.28;46.76;99871.38;4995573;28;20181;-68
2020/12/31 22:14:39;;;;;;;3.30;3.10;;;;;;;18.23;46.61;99875.69;5012818;28;20692;-65
2020/12/31 22:17:05;;;;;;;3.70;3.40;;;;;;;18.20;46.54;99874.16;5012796;28;20209;-67
2020/12/31 22:19:32;;;;;;;3.90;3.60;;;;;;;18.16;46.49;99872.88;5012690;28;20186;-67
2020/12/31 22:22:04;;;;;;;3.80;3.50;;;;;;;18.15;46.42;99875.75;5012691;28;20292;-66
2020/12/31 22:24:35;;;;;;;3.70;3.40;;;;;;;18.10;46.86;99879.03;4996425;28;20194;-62
2020/12/31 22:27:01;;;;;;;3.70;3.40;;;;;;;18.05;46.99;99887.72;4983270;28;20228;-67
2020/12/31 22:29:27;;;;;;;3.87;3.57;;;;;;;18.00;46.76;99879.31;5028469;28;20682;-67
2020/12/31 22:31:55;;;;;;;4.00;3.70;;;;;;;17.96;46.65;99888.81;5024083;28;20189;-66
2020/12/31 22:34:21;;;;;;;3.60;3.30;;;;;;;17.95;46.45;99887.13;5031729;28;20224;-67
2020/12/31 22:36:47;;;;;;;4.10;3.80;;;;;;;17.95;47.15;99880.88;5012554;28;20288;-66
2020/12/31 22:39:14;;;;;;;3.67;3.37;;;;;;;18.01;46.78;99881.00;5012554;28;20181;-62
2020/12/31 22:41:41;;;;;;;3.50;3.30;;;;;;;18.09;46.71;99883.59;4994880;28;20287;-62
2020/12/31 22:44:07;;;;;;;3.80;3.50;;;;;;;18.19;46.76;99887.91;4995082;28;20197;-67
2020/12/31 22:46:33;;;;;;;3.97;3.67;;;;;;;18.30;46.48;99887.44;5012175;28;20209;-67
2020/12/31 22:49:00;;;;;;;3.80;3.50;;;;;;;18.39;46.44;99879.03;5012012;28;20205;-66
2020/12/31 22:51:26;;;;;;;3.87;3.57;;;;;;;18.49;46.83;99889.59;5012113;28;20648;-63
2020/12/31 22:53:52;;;;;;;3.53;3.30;;;;;;;18.57;46.60;99897.63;5012208;28;20782;-63
2020/12/31 22:56:18;;;;;;;3.80;3.50;;;;;;;18.64;46.38;99895.03;5011696;28;20209;-63
2020/12/31 22:58:44;;;;;;;3.80;3.50;;;;;;;18.70;46.49;99897.84;4994636;28;20196;-64
2020/12/31 23:01:10;;;;;;;3.33;3.10;;;;;;;18.76;46.23;99892.69;5011955;28;20633;-62
2020/12/31 23:03:36;;;;;;;3.73;3.43;;;;;;;18.79;46.21;99892.31;4994550;28;20191;-62
2020/12/31 23:06:02;;;;;;;3.60;3.30;;;;;;;18.82;46.07;99886.50;4994454;28;20521;-66
2020/12/31 23:08:29;;;;;;;3.87;3.57;;;;;;;18.82;46.15;99895.47;4994610;28;20822;-66
2020/12/31 23:10:55;;;;;;;4.17;3.87;;;;;;;18.82;46.21;99889.22;4994742;28;20184;-67
2020/12/31 23:13:21;;;;;;;3.97;3.67;;;;;;;18.82;45.88;99892.75;5011632;28;20197;-67
2020/12/31 23:15:47;;;;;;;3.73;3.43;;;;;;;18.80;45.97;99892.13;5011842;28;20307;-66
2020/12/31 23:18:13;;;;;;;3.80;3.50;;;;;;;18.79;46.11;99897.72;5011656;28;20192;-66
2020/12/31 23:20:39;;;;;;;4.20;3.90;;;;;;;18.76;45.92;99888.13;5011559;28;20330;-67
2020/12/31 23:23:07;;;;;;;4.13;3.83;;;;;;;18.74;45.92;99894.75;5011856;28;20629;-67
2020/12/31 23:25:33;;;;;;;4.43;4.13;;;;;;;18.69;45.99;99898.00;5011456;28;20229;-64
2020/12/31 23:27:59;;;;;;;4.70;4.30;;;;;;;18.60;45.76;99897.25;5011548;28;20200;-64
2020/12/31 23:30:25;;;;;;;4.10;3.80;;;;;;;18.55;46.22;99896.97;4994374;28;20181;-63
2020/12/31 23:32:51;;;;;;;4.47;4.17;;;;;;;18.47;45.92;99891.66;4994264;28;20192;-63
2020/12/31 23:35:18;;;;;;;4.10;3.80;;;;;;;18.40;46.35;99902.38;5011608;28;20200;-64
2020/12/31 23:37:48;;;;;;;4.50;4.10;;;;;;;18.31;46.12;99899.97;4978490;28;20809;-65
2020/12/31 23:40:14;;;;;;;4.67;4.27;;;;;;;18.24;46.20;99902.59;4994117;28;20221;-67
2020/12/31 23:42:42;;;;;;;4.43;4.10;;;;;;;18.27;46.31;99898.66;5011667;28;20185;-62
2020/12/31 23:45:09;;;;;;;4.90;4.50;;;;;;;18.27;46.15;99912.22;5011438;28;20205;-63
2020/12/31 23:47:44;;;;;;;4.53;4.13;;;;;;;18.28;46.44;99909.31;5011398;28;20213;-62
2020/12/31 23:50:11;;;;;;;4.43;4.13;;;;;;;18.30;46.44;99919.97;4994326;28;20182;-68
2020/12/31 23:52:37;;;;;;;4.63;4.23;;;;;;;18.30;46.43;99912.69;4994114;28;20201;-66
2020/12/31 23:55:05;;;;;;;4.40;4.10;;;;;;;18.29;46.25;99913.69;5011355;28;20315;-66
2020/12/31 23:57:31;;;;;;;4.57;4.17;;;;;;;18.31;46.17;99919.78;4977413;28;20189;-66
2020/12/31 23:59:57;;;;;;;4.37;4.00;;;;;;;18.33;46.11;99916.88;4993575;28;20310;-67
